createdAt,value
2023-05-09T05:03:06.382Z,500.00
2023-05-09T05:04:07.266Z,500.00
2023-05-09T05:05:12.060Z,500.00
2023-05-09T05:06:07.257Z,500.00
2023-05-09T05:07:06.245Z,500.00
2023-05-09T05:08:07.236Z,500.00
2023-05-09T05:09:07.277Z,500.00
2023-05-09T05:10:07.216Z,500.00
2023-05-09T05:11:06.196Z,457.00
2023-05-09T05:12:08.910Z,425.00
2023-05-09T05:13:07.311Z,400.00
2023-05-09T05:14:07.181Z,400.00
2023-05-09T05:15:06.179Z,400.00
2023-05-09T05:16:07.187Z,400.00
2023-05-09T05:17:06.170Z,400.00
2023-05-09T05:18:07.223Z,400.00
2023-05-09T05:19:06.312Z,400.00
2023-05-09T05:20:06.140Z,400.00
2023-05-09T05:21:07.141Z,400.00
2023-05-09T05:22:06.127Z,400.00
2023-05-09T05:23:06.119Z,400.00
2023-05-09T05:24:07.103Z,400.00
2023-05-09T05:25:07.121Z,410.00
2023-05-09T05:26:06.099Z,458.00
2023-05-09T05:27:07.098Z,495.00
2023-05-09T05:28:07.095Z,502.00
2023-05-09T05:29:06.115Z,500.00
2023-05-09T05:30:06.178Z,503.00
2023-05-09T05:31:07.121Z,500.00
2023-05-09T05:32:07.070Z,501.00
2023-05-09T05:33:06.170Z,503.00
2023-05-09T05:34:06.066Z,500.00
2023-05-09T05:35:06.169Z,501.00
2023-05-09T05:36:07.030Z,505.00
2023-05-09T05:37:07.034Z,506.00
2023-05-09T05:38:06.087Z,500.00
2023-05-09T05:39:06.041Z,500.00
2023-05-09T05:40:07.001Z,500.00
2023-05-09T05:41:06.989Z,502.00
2023-05-09T05:42:07.082Z,507.00
2023-05-09T05:43:06.983Z,502.00
2023-05-09T05:44:06.956Z,506.00
2023-05-09T05:45:05.975Z,500.00
2023-05-09T05:46:05.993Z,505.00
2023-05-09T05:47:06.943Z,509.00
2023-05-09T05:48:05.967Z,500.00
2023-05-09T05:49:05.930Z,505.00
2023-05-09T05:50:06.926Z,506.00
2023-05-09T05:51:07.042Z,504.00
2023-05-09T05:52:06.900Z,502.00
2023-05-09T05:53:06.894Z,501.00
2023-05-09T05:54:06.881Z,500.00
2023-05-09T05:55:06.960Z,501.00
2023-05-09T05:56:06.897Z,503.00
2023-05-09T05:57:06.878Z,509.00
2023-05-09T05:58:06.917Z,500.00
2023-05-09T05:59:06.931Z,500.00
2023-05-09T06:00:05.907Z,503.00
2023-05-09T06:01:05.911Z,505.00
2023-05-09T06:02:06.010Z,500.00
2023-05-09T06:03:06.024Z,504.00
2023-05-09T06:04:07.021Z,504.00
2023-05-09T06:05:06.965Z,502.00
2023-05-09T06:06:05.996Z,500.00
2023-05-09T06:07:06.128Z,502.00
2023-05-09T06:08:06.014Z,504.00
2023-05-09T06:09:07.087Z,510.00
2023-05-09T06:10:07.080Z,504.00
2023-05-09T06:11:07.041Z,502.00
2023-05-09T06:12:07.091Z,507.00
2023-05-09T06:13:07.192Z,522.00
2023-05-09T06:14:07.069Z,531.00
2023-05-09T06:15:06.112Z,526.00
2023-05-09T06:16:18.666Z,518.00
2023-05-09T06:17:07.230Z,518.00
2023-05-09T06:18:07.191Z,517.00
2023-05-09T06:19:07.160Z,509.00
2023-05-09T06:20:07.135Z,506.00
2023-05-09T06:21:06.095Z,504.00
2023-05-09T06:22:07.156Z,502.00
2023-05-09T06:23:07.184Z,500.00
2023-05-09T06:24:14.241Z,503.00
2023-05-09T06:25:09.559Z,504.00
2023-05-09T06:26:07.032Z,504.00
2023-05-09T06:27:07.028Z,503.00
2023-05-09T06:28:06.021Z,496.00
2023-05-09T06:29:06.016Z,503.00
2023-05-09T06:30:23.669Z,496.00
2023-05-09T06:31:07.033Z,504.00
2023-05-09T06:32:06.006Z,503.00
2023-05-09T06:33:06.030Z,499.00
2023-05-09T06:34:06.972Z,496.00
2023-05-09T06:35:05.970Z,493.00
2023-05-09T06:36:06.957Z,507.00
2023-05-09T06:37:06.956Z,509.00
2023-05-09T06:38:06.959Z,500.00
2023-05-09T06:39:07.055Z,502.00
2023-05-09T06:40:06.930Z,501.00
2023-05-09T06:41:06.920Z,502.00
2023-05-09T06:42:05.918Z,503.00
2023-05-09T06:43:05.905Z,505.00
2023-05-09T06:44:05.899Z,506.00
2023-05-09T06:45:06.947Z,506.00
2023-05-09T06:46:05.943Z,505.00
2023-05-09T06:47:05.863Z,508.00
2023-05-09T06:48:06.897Z,506.00
2023-05-09T06:49:06.852Z,508.00
2023-05-09T06:50:05.852Z,503.00
2023-05-09T06:51:05.847Z,507.00
2023-05-09T06:52:05.850Z,506.00
2023-05-09T06:53:05.834Z,506.00
2023-05-09T06:54:05.846Z,504.00
2023-05-09T06:55:05.939Z,502.00
2023-05-09T06:56:06.807Z,509.00
2023-05-09T06:57:05.796Z,506.00
2023-05-09T06:58:06.796Z,502.00
2023-05-09T06:59:05.781Z,508.00
2023-05-09T07:00:06.842Z,501.00
2023-05-09T07:01:06.764Z,505.00
2023-05-09T07:02:06.822Z,504.00
2023-05-09T07:03:05.805Z,514.00
2023-05-09T07:04:06.759Z,500.00
2023-05-09T07:05:06.817Z,508.00
2023-05-09T07:06:06.753Z,504.00
2023-05-09T07:07:05.738Z,509.00
2023-05-09T07:08:05.734Z,501.00
2023-05-09T07:09:06.728Z,508.00
2023-05-09T07:11:05.845Z,501.00
2023-05-09T07:12:05.708Z,505.00
2023-05-09T07:13:06.702Z,509.00
2023-05-09T07:14:05.696Z,503.00
2023-05-09T07:15:06.698Z,503.00
2023-05-09T07:16:06.837Z,510.00
2023-05-09T07:17:21.701Z,509.00
2023-05-09T07:18:06.709Z,509.00
2023-05-09T07:19:06.783Z,510.00
2023-05-09T07:20:06.651Z,510.00
2023-05-09T07:21:05.628Z,512.00
2023-05-09T07:22:05.688Z,513.00
2023-05-09T07:23:06.644Z,511.00
2023-05-09T07:24:06.624Z,508.00
2023-05-09T07:25:05.646Z,511.00
2023-05-09T07:26:05.604Z,507.00
2023-05-09T07:27:06.768Z,507.00
2023-05-09T07:28:06.679Z,508.00
2023-05-09T07:29:06.585Z,508.00
2023-05-09T07:30:05.613Z,509.00
2023-05-09T07:31:05.588Z,508.00
2023-05-09T07:32:06.655Z,513.00
2023-05-09T07:33:06.698Z,510.00
2023-05-09T07:34:06.540Z,509.00
2023-05-09T07:35:06.545Z,511.00
2023-05-09T07:36:05.609Z,511.00
2023-05-09T07:37:06.550Z,508.00
2023-05-09T07:38:06.520Z,509.00
2023-05-09T07:39:06.514Z,510.00
2023-05-09T07:40:05.512Z,514.00
2023-05-09T07:41:06.497Z,506.00
2023-05-09T07:42:06.483Z,509.00
2023-05-09T07:43:05.620Z,513.00
2023-05-09T07:44:06.466Z,513.00
2023-05-09T07:45:06.494Z,507.00
2023-05-09T07:46:05.522Z,512.00
2023-05-09T07:47:06.458Z,510.00
2023-05-09T07:48:06.498Z,516.00
2023-05-09T07:49:05.439Z,514.00
2023-05-09T07:50:05.873Z,523.00
2023-05-09T07:51:06.424Z,516.00
2023-05-09T07:52:05.416Z,511.00
2023-05-09T07:53:06.403Z,524.00
2023-05-09T07:54:06.437Z,523.00
2023-05-09T07:55:05.501Z,526.00
2023-05-09T07:56:06.532Z,522.00
2023-05-09T07:57:05.581Z,529.00
2023-05-09T07:58:05.650Z,531.00
2023-05-09T07:59:05.879Z,530.00
2023-05-09T08:00:05.785Z,532.00
2023-05-09T08:01:05.825Z,538.00
2023-05-09T08:02:07.125Z,539.00
2023-05-09T08:03:07.063Z,542.00
2023-05-09T08:04:07.083Z,544.00
2023-05-09T08:05:07.069Z,548.00
2023-05-09T08:06:07.139Z,547.00
2023-05-09T08:07:07.182Z,794.00
2023-05-09T08:08:06.224Z,773.00
2023-05-09T08:09:07.275Z,737.00
2023-05-09T08:10:06.345Z,783.00
2023-05-09T08:11:07.395Z,795.00
2023-05-09T08:12:06.442Z,755.00
2023-05-09T08:13:06.491Z,802.00
2023-05-09T08:14:07.513Z,834.00
2023-05-09T08:15:06.776Z,848.00
2023-05-09T08:16:07.714Z,820.00
2023-05-09T08:17:06.657Z,862.00
2023-05-09T08:18:06.722Z,861.00
2023-05-09T08:19:06.727Z,899.00
2023-05-09T08:20:06.781Z,900.00
2023-05-09T08:21:07.808Z,895.00
2023-05-09T08:22:07.864Z,895.00
2023-05-09T08:23:07.898Z,885.00
2023-05-09T08:24:06.977Z,884.00
2023-05-09T08:25:07.005Z,877.00
2023-05-09T08:26:08.031Z,878.00
2023-05-09T08:27:07.073Z,872.00
2023-05-09T08:28:07.087Z,866.00
2023-05-09T08:29:07.128Z,857.00
2023-05-09T08:30:07.206Z,845.00
2023-05-09T08:31:07.379Z,850.00
2023-05-09T08:32:07.267Z,826.00
2023-05-09T08:33:07.369Z,799.00
2023-05-09T08:34:08.419Z,788.00
2023-05-09T08:35:08.427Z,775.00
2023-05-09T08:36:08.505Z,785.00
2023-05-09T08:37:07.494Z,781.00
2023-05-09T08:38:07.541Z,759.00
2023-05-09T08:39:07.578Z,747.00
2023-05-09T08:40:08.660Z,741.00
2023-05-09T08:41:07.676Z,731.00
2023-05-09T08:42:08.718Z,716.00
2023-05-09T08:43:07.749Z,707.00
2023-05-09T08:44:07.795Z,713.00
2023-05-09T08:45:08.935Z,706.00
2023-05-09T08:46:08.916Z,693.00
2023-05-09T08:47:09.057Z,688.00
2023-05-09T08:48:08.071Z,682.00
2023-05-09T08:49:09.015Z,674.00
2023-05-09T08:50:08.029Z,676.00
2023-05-09T08:51:09.089Z,686.00
2023-05-09T08:52:09.127Z,672.00
2023-05-09T08:53:09.188Z,666.00
2023-05-09T08:54:08.238Z,667.00
2023-05-09T08:55:09.422Z,658.00
2023-05-09T08:56:09.313Z,654.00
2023-05-09T08:57:08.351Z,655.00
2023-05-09T08:58:08.425Z,643.00
2023-05-09T08:59:09.490Z,651.00
2023-05-09T09:00:08.564Z,649.00
2023-05-09T09:01:09.588Z,649.00
2023-05-09T09:02:09.754Z,613.00
2023-05-09T09:03:09.884Z,609.00
2023-05-09T09:04:09.816Z,601.00
2023-05-09T09:05:19.641Z,614.00
2023-05-09T09:06:09.807Z,614.00
2023-05-09T09:07:09.876Z,615.00
2023-05-09T09:08:09.793Z,594.00
2023-05-09T09:09:09.812Z,608.00
2023-05-09T09:10:09.763Z,599.00
2023-05-09T09:11:08.799Z,590.00
2023-05-09T09:12:09.767Z,585.00
2023-05-09T09:13:09.786Z,601.00
2023-05-09T09:14:09.764Z,595.00
2023-05-09T09:15:09.738Z,578.00
2023-05-09T09:16:08.821Z,559.00
2023-05-09T09:17:09.730Z,572.00
2023-05-09T09:18:09.759Z,570.00
2023-05-09T09:19:09.839Z,560.00
2023-05-09T09:20:09.758Z,573.00
2023-05-09T09:21:09.714Z,569.00
2023-05-09T09:22:08.703Z,573.00
2023-05-09T09:23:09.684Z,567.00
2023-05-09T09:24:09.686Z,572.00
2023-05-09T09:25:09.668Z,522.00
2023-05-09T09:26:09.677Z,530.00
2023-05-09T09:27:09.672Z,554.00
2023-05-09T09:28:09.642Z,559.00
2023-05-09T09:29:08.660Z,520.00
2023-05-09T09:30:09.648Z,551.00
2023-05-09T09:31:08.693Z,544.00
2023-05-09T09:32:08.858Z,524.00
2023-05-09T09:33:08.964Z,532.00
2023-05-09T09:34:09.843Z,506.00
2023-05-09T09:35:08.936Z,536.00
2023-05-09T09:36:09.005Z,490.00
2023-05-09T09:37:10.004Z,525.00
2023-05-09T09:38:10.007Z,497.00
2023-05-09T09:39:09.095Z,521.00
2023-05-09T09:40:10.012Z,558.00
2023-05-09T09:41:10.035Z,561.00
2023-05-09T09:42:10.077Z,580.00
2023-05-09T09:43:10.141Z,568.00
2023-05-09T09:44:09.193Z,575.00
2023-05-09T09:45:10.244Z,481.00
2023-05-09T09:46:10.298Z,471.00
2023-05-09T09:47:10.251Z,456.00
2023-05-09T09:48:10.380Z,583.00
2023-05-09T09:49:10.299Z,646.00
2023-05-09T09:50:09.328Z,543.00
2023-05-09T09:51:10.558Z,492.00
2023-05-09T09:52:10.390Z,575.00
2023-05-09T09:53:09.414Z,629.00
2023-05-09T09:54:10.429Z,747.00
2023-05-09T09:55:09.524Z,818.00
2023-05-09T09:56:10.434Z,834.00
2023-05-09T09:57:10.440Z,895.00
2023-05-09T09:58:10.459Z,903.00
2023-05-09T09:59:10.493Z,928.00
2023-05-09T10:00:10.534Z,945.00
2023-05-09T10:01:10.576Z,1003.00
2023-05-09T10:02:09.601Z,999.00
2023-05-09T10:03:10.703Z,1008.00
2023-05-09T10:04:10.824Z,894.00
2023-05-09T10:05:09.779Z,904.00
2023-05-09T10:06:10.785Z,785.00
2023-05-09T10:07:12.897Z,772.00
2023-05-09T10:08:09.787Z,776.00
2023-05-09T10:09:10.755Z,795.00
2023-05-09T10:10:10.752Z,812.00
2023-05-09T10:11:10.745Z,877.00
2023-05-09T10:12:10.768Z,930.00
2023-05-09T10:13:09.741Z,949.00
2023-05-09T10:14:09.738Z,948.00
2023-05-09T10:15:10.746Z,954.00
2023-05-09T10:16:10.850Z,949.00
2023-05-09T10:17:10.773Z,917.00
2023-05-09T10:18:10.820Z,851.00
2023-05-09T10:19:10.779Z,924.00
2023-05-09T10:20:10.834Z,825.00
2023-05-09T10:21:10.829Z,626.00
2023-05-09T10:22:09.840Z,646.00
2023-05-09T10:23:09.986Z,832.00
2023-05-09T10:24:09.870Z,833.00
2023-05-09T10:25:09.908Z,756.00
2023-05-09T10:26:10.915Z,718.00
2023-05-09T10:27:09.919Z,748.00
2023-05-09T10:28:10.945Z,853.00
2023-05-09T10:29:09.981Z,810.00
2023-05-09T10:30:11.017Z,857.00
2023-05-09T10:31:11.102Z,844.00
2023-05-09T10:32:11.121Z,863.00
2023-05-09T10:33:10.209Z,808.00
2023-05-09T10:34:10.197Z,639.00
2023-05-09T10:35:11.204Z,665.00
2023-05-09T10:36:10.352Z,762.00
2023-05-09T10:37:11.177Z,693.00
2023-05-09T10:38:10.190Z,669.00
2023-05-09T10:39:11.346Z,734.00
2023-05-09T10:40:11.190Z,773.00
2023-05-09T10:41:11.238Z,652.00
2023-05-09T10:42:10.242Z,745.00
2023-05-09T10:43:10.284Z,650.00
2023-05-09T10:44:10.303Z,654.00
2023-05-09T10:45:10.360Z,753.00
2023-05-09T10:46:10.511Z,776.00
2023-05-09T10:47:12.312Z,792.00
2023-05-09T10:48:11.541Z,779.00
2023-05-09T10:49:11.597Z,806.00
2023-05-09T10:50:11.649Z,812.00
2023-05-09T10:51:10.720Z,827.00
2023-05-09T10:52:10.746Z,844.00
2023-05-09T10:53:11.827Z,831.00
2023-05-09T10:54:10.850Z,845.00
2023-05-09T10:55:11.012Z,844.00
2023-05-09T10:56:11.946Z,845.00
2023-05-09T10:57:11.973Z,868.00
2023-05-09T10:58:12.007Z,882.00
2023-05-09T10:59:12.061Z,798.00
2023-05-09T11:00:11.081Z,840.00
2023-05-09T11:01:12.150Z,830.00
2023-05-09T11:02:11.119Z,694.00
2023-05-09T11:03:11.257Z,765.00
2023-05-09T11:04:12.204Z,806.00
2023-05-09T11:05:12.345Z,799.00
2023-05-09T11:06:11.418Z,806.00
2023-05-09T11:07:11.290Z,824.00
2023-05-09T11:08:11.319Z,808.00
2023-05-09T11:09:11.355Z,834.00
2023-05-09T11:10:12.362Z,816.00
2023-05-09T11:11:12.400Z,820.00
2023-05-09T11:12:12.399Z,821.00
2023-05-09T11:13:12.479Z,819.00
2023-05-09T11:14:12.398Z,801.00
2023-05-09T11:15:12.542Z,803.00
2023-05-09T11:16:11.469Z,693.00
2023-05-09T11:17:12.449Z,754.00
2023-05-09T11:18:12.497Z,746.00
2023-05-09T11:19:12.481Z,767.00
2023-05-09T11:20:11.494Z,620.00
2023-05-09T11:21:11.509Z,563.00
2023-05-09T11:22:12.558Z,582.00
2023-05-09T11:23:12.601Z,563.00
2023-05-09T11:24:11.625Z,548.00
2023-05-09T11:25:11.659Z,605.00
2023-05-09T11:26:11.679Z,574.00
2023-05-09T11:27:12.742Z,618.00
2023-05-09T11:28:12.753Z,619.00
2023-05-09T11:29:11.777Z,639.00
2023-05-09T11:30:12.814Z,647.00
2023-05-09T11:31:12.859Z,646.00
2023-05-09T11:32:12.971Z,496.00
2023-05-09T11:33:12.942Z,479.00
2023-05-09T11:34:12.940Z,426.00
2023-05-09T11:35:12.159Z,435.00
2023-05-09T11:36:13.471Z,452.00
2023-05-09T11:37:13.046Z,476.00
2023-05-09T11:38:12.072Z,610.00
2023-05-09T11:39:13.075Z,828.00
2023-05-09T11:40:13.101Z,633.00
2023-05-09T11:41:13.454Z,781.00
2023-05-09T11:42:13.967Z,758.00
2023-05-09T11:43:12.225Z,996.00
2023-05-09T11:44:13.114Z,665.00
2023-05-09T11:45:13.525Z,617.00
2023-05-09T11:46:12.233Z,559.00
2023-05-09T11:47:12.185Z,509.00
2023-05-09T11:48:12.192Z,525.00
2023-05-09T11:49:15.196Z,571.00
2023-05-09T11:50:13.195Z,525.00
2023-05-09T11:51:13.189Z,573.00
2023-05-09T11:52:13.177Z,526.00
2023-05-09T11:53:12.190Z,554.00
2023-05-09T11:54:12.160Z,540.00
2023-05-09T11:55:13.189Z,537.00
2023-05-09T11:56:12.160Z,572.00
2023-05-09T11:57:12.165Z,634.00
2023-05-09T11:58:13.122Z,645.00
2023-05-09T11:59:13.256Z,609.00
2023-05-09T12:00:13.104Z,675.00
2023-05-09T12:01:13.124Z,573.00
2023-05-09T12:02:12.289Z,519.00
2023-05-09T12:03:13.190Z,500.00
2023-05-09T12:04:12.101Z,492.00
2023-05-09T12:05:13.514Z,535.00
2023-05-09T12:06:13.101Z,544.00
2023-05-09T12:07:13.072Z,500.00
2023-05-09T12:08:12.060Z,508.00
2023-05-09T12:09:12.070Z,511.00
2023-05-09T12:10:12.051Z,599.00
2023-05-09T12:11:13.029Z,505.00
2023-05-09T12:12:12.032Z,522.00
2023-05-09T12:13:13.204Z,523.00
2023-05-09T12:14:12.019Z,499.00
2023-05-09T12:15:13.205Z,556.00
2023-05-09T12:16:13.074Z,610.00
2023-05-09T12:17:13.000Z,522.00
2023-05-09T12:18:11.991Z,494.00
2023-05-09T12:19:12.973Z,558.00
2023-05-09T12:20:12.985Z,610.00
2023-05-09T12:21:11.945Z,557.00
2023-05-09T12:22:12.948Z,525.00
2023-05-09T12:23:11.925Z,500.00
2023-05-09T12:24:11.928Z,533.00
2023-05-09T12:25:12.097Z,568.00
2023-05-09T12:26:12.903Z,527.00
2023-05-09T12:27:12.918Z,575.00
2023-05-09T12:28:12.902Z,579.00
2023-05-09T12:29:12.885Z,618.00
2023-05-09T12:30:12.870Z,624.00
2023-05-09T12:31:12.030Z,648.00
2023-05-09T12:32:12.873Z,575.00
2023-05-09T12:33:11.866Z,602.00
2023-05-09T12:34:12.854Z,617.00
2023-05-09T12:35:13.130Z,666.00
2023-05-09T12:36:12.867Z,614.00
2023-05-09T12:37:12.866Z,649.00
2023-05-09T12:38:11.875Z,661.00
2023-05-09T12:39:12.885Z,674.00
2023-05-09T12:40:13.081Z,588.00
2023-05-09T12:41:29.622Z,694.00
2023-05-09T12:42:12.937Z,658.00
2023-05-09T12:43:11.925Z,631.00
2023-05-09T12:44:12.949Z,570.00
2023-05-09T12:45:11.945Z,596.00
2023-05-09T12:46:12.965Z,611.00
2023-05-09T12:47:12.045Z,647.00
2023-05-09T12:48:12.953Z,664.00
2023-05-09T12:49:12.899Z,579.00
2023-05-09T12:50:11.883Z,564.00
2023-05-09T12:51:11.869Z,589.00
2023-05-09T12:52:11.866Z,602.00
2023-05-09T12:53:12.852Z,544.00
2023-05-09T12:54:12.838Z,493.00
2023-05-09T12:55:13.075Z,585.00
2023-05-09T12:56:11.835Z,586.00
2023-05-09T12:57:11.829Z,504.00
2023-05-09T12:58:11.833Z,590.00
2023-05-09T12:59:11.820Z,616.00
2023-05-09T13:00:12.915Z,569.00
2023-05-09T13:01:12.828Z,526.00
2023-05-09T13:02:12.802Z,536.00
2023-05-09T13:03:12.968Z,600.00
2023-05-09T13:04:12.731Z,528.00
2023-05-09T13:05:13.037Z,573.00
2023-05-09T13:06:11.781Z,568.00
2023-05-09T13:07:12.758Z,527.00
2023-05-09T13:08:12.739Z,543.00
2023-05-09T13:09:12.746Z,574.00
2023-05-09T13:10:12.651Z,535.00
2023-05-09T13:11:16.270Z,547.00
2023-05-09T13:12:12.731Z,549.00
2023-05-09T13:13:11.812Z,553.00
2023-05-09T13:14:11.715Z,552.00
2023-05-09T13:15:12.986Z,519.00
2023-05-09T13:16:13.518Z,567.00
2023-05-09T13:17:11.726Z,548.00
2023-05-09T13:18:11.705Z,561.00
2023-05-09T13:19:12.890Z,561.00
2023-05-09T13:20:12.956Z,605.00
2023-05-09T13:21:11.669Z,776.00
2023-05-09T13:22:12.714Z,857.00
2023-05-09T13:23:11.638Z,775.00
2023-05-09T13:24:11.639Z,734.00
2023-05-09T13:25:12.632Z,636.00
2023-05-09T13:26:12.633Z,630.00
2023-05-09T13:27:11.620Z,605.00
2023-05-09T13:28:12.599Z,639.00
2023-05-09T13:29:12.590Z,524.00
2023-05-09T13:30:12.921Z,571.00
2023-05-09T13:31:11.700Z,559.00
2023-05-09T13:32:11.572Z,622.00
2023-05-09T13:33:24.526Z,770.00
2023-05-09T13:34:12.563Z,772.00
2023-05-09T13:35:12.687Z,782.00
2023-05-09T13:36:12.568Z,812.00
2023-05-09T13:37:11.550Z,862.00
2023-05-09T13:38:11.525Z,856.00
2023-05-09T13:39:12.520Z,886.00
2023-05-09T13:40:12.653Z,947.00
2023-05-09T13:41:11.505Z,1018.00
2023-05-09T13:42:12.518Z,1017.00
2023-05-09T13:43:11.542Z,1018.00
2023-05-09T13:44:11.486Z,976.00
2023-05-09T13:45:12.582Z,1042.00
2023-05-09T13:46:12.487Z,973.00
2023-05-09T13:47:12.464Z,1016.00
2023-05-09T13:48:12.519Z,1006.00
2023-05-09T13:49:11.463Z,1063.00
2023-05-09T13:50:12.866Z,1113.00
2023-05-09T13:51:11.577Z,1149.00
2023-05-09T13:52:11.425Z,984.00
2023-05-09T13:53:11.428Z,1129.00
2023-05-09T13:54:12.429Z,1015.00
2023-05-09T13:55:12.418Z,1104.00
2023-05-09T13:56:12.409Z,1086.00
2023-05-09T13:57:11.404Z,1046.00
2023-05-09T13:58:12.382Z,985.00
2023-05-09T13:59:11.378Z,1032.00
2023-05-09T14:00:13.820Z,1000.00
2023-05-09T14:01:12.459Z,916.00
2023-05-09T14:02:12.365Z,855.00
2023-05-09T14:03:12.356Z,684.00
2023-05-09T14:04:11.359Z,624.00
2023-05-09T14:05:12.336Z,628.00
2023-05-09T14:06:13.417Z,604.00
2023-05-09T14:07:11.455Z,584.00
2023-05-09T14:08:12.362Z,584.00
2023-05-09T14:09:12.298Z,612.00
2023-05-09T14:10:12.544Z,627.00
2023-05-09T14:11:12.294Z,620.00
2023-05-09T14:12:12.467Z,628.00
2023-05-09T14:13:11.405Z,683.00
2023-05-09T14:14:11.316Z,790.00
2023-05-09T14:15:11.364Z,715.00
2023-05-09T14:16:12.325Z,732.00
2023-05-09T14:17:12.271Z,887.00
2023-05-09T14:18:15.955Z,946.00
2023-05-09T14:19:12.228Z,949.00
2023-05-09T14:20:12.225Z,957.00
2023-05-09T14:21:12.208Z,860.00
2023-05-09T14:22:11.202Z,690.00
2023-05-09T14:23:12.332Z,865.00
2023-05-09T14:24:12.963Z,972.00
2023-05-09T14:25:11.198Z,973.00
2023-05-09T14:26:12.173Z,976.00
2023-05-09T14:27:12.176Z,1014.00
2023-05-09T14:28:12.160Z,933.00
2023-05-09T14:29:12.149Z,877.00
2023-05-09T14:30:12.143Z,1043.00
2023-05-09T14:31:12.176Z,832.00
2023-05-09T14:32:11.134Z,698.00
2023-05-09T14:33:12.117Z,842.00
2023-05-09T14:34:12.113Z,936.00
2023-05-09T14:35:12.177Z,973.00
2023-05-09T14:36:11.149Z,1042.00
2023-05-09T14:37:12.088Z,1191.00
2023-05-09T14:38:12.093Z,1165.00
2023-05-09T14:39:11.244Z,1261.00
2023-05-09T14:40:11.069Z,744.00
2023-05-09T14:41:12.057Z,635.00
2023-05-09T14:42:12.054Z,590.00
2023-05-09T14:43:11.177Z,630.00
2023-05-09T14:44:12.038Z,555.00
2023-05-09T14:45:12.103Z,524.00
2023-05-09T14:46:12.035Z,579.00
2023-05-09T14:47:11.073Z,557.00
2023-05-09T14:48:11.883Z,554.00
2023-05-09T14:49:11.034Z,603.00
2023-05-09T14:50:10.991Z,636.00
2023-05-09T14:51:12.004Z,623.00
2023-05-09T14:52:10.996Z,611.00
2023-05-09T14:53:11.983Z,605.00
2023-05-09T14:54:12.024Z,629.00
2023-05-09T14:55:12.082Z,683.00
2023-05-09T14:56:11.964Z,755.00
2023-05-09T14:57:10.973Z,755.00
2023-05-09T14:58:11.953Z,782.00
2023-05-09T14:59:11.947Z,655.00
2023-05-09T15:00:20.543Z,623.00
2023-05-09T15:01:11.970Z,624.00
2023-05-09T15:02:11.929Z,626.00
2023-05-09T15:03:11.046Z,633.00
2023-05-09T15:04:10.926Z,628.00
2023-05-09T15:05:11.952Z,716.00
2023-05-09T15:06:10.886Z,723.00
2023-05-09T15:07:11.892Z,642.00
2023-05-09T15:08:11.876Z,645.00
2023-05-09T15:09:11.879Z,613.00
2023-05-09T15:10:10.868Z,631.00
2023-05-09T15:11:11.978Z,609.00
2023-05-09T15:12:11.851Z,608.00
2023-05-09T15:13:11.869Z,606.00
2023-05-09T15:14:10.841Z,581.00
2023-05-09T15:15:10.817Z,555.00
2023-05-09T15:16:11.854Z,506.00
2023-05-09T15:17:11.851Z,525.00
2023-05-09T15:18:11.806Z,469.00
2023-05-09T15:19:11.805Z,495.00
2023-05-09T15:20:10.783Z,522.00
2023-05-09T15:21:11.772Z,527.00
2023-05-09T15:22:10.766Z,499.00
2023-05-09T15:23:11.809Z,513.00
2023-05-09T15:24:11.755Z,500.00
2023-05-09T15:25:10.754Z,550.00
2023-05-09T15:26:10.735Z,631.00
2023-05-09T15:27:11.862Z,696.00
2023-05-09T15:28:11.727Z,649.00
2023-05-09T15:29:11.726Z,604.00
